createdAt,value
2018-07-22T00:00:09.430Z,59.33
2018-07-22T00:02:37.728Z,59.32
2018-07-22T00:05:05.722Z,59.75
2018-07-22T00:07:33.565Z,59.77
2018-07-22T00:10:01.397Z,59.94
2018-07-22T00:12:29.265Z,59.72
2018-07-22T00:14:57.184Z,59.58
2018-07-22T00:17:25.077Z,59.11
2018-07-22T00:19:52.996Z,59.31
2018-07-22T00:22:20.890Z,60.42
2018-07-22T00:24:48.731Z,61.10
2018-07-22T00:27:16.582Z,61.63
2018-07-22T00:29:44.481Z,61.20
2018-07-22T00:32:12.338Z,61.77
2018-07-22T00:34:40.200Z,61.00
2018-07-22T00:37:08.059Z,61.49
2018-07-22T00:39:35.946Z,61.04
2018-07-22T00:42:03.837Z,61.11
2018-07-22T00:44:31.683Z,60.94
2018-07-22T00:46:59.533Z,60.91
2018-07-22T00:49:27.393Z,61.49
2018-07-22T00:51:55.250Z,60.84
2018-07-22T00:54:23.111Z,60.71
2018-07-22T00:56:50.982Z,60.72
2018-07-22T00:59:18.819Z,61.01
2018-07-22T01:01:46.677Z,60.83
2018-07-22T01:04:14.513Z,61.04
2018-07-22T01:06:42.345Z,62.02
2018-07-22T01:09:11.258Z,62.35
2018-07-22T01:11:39.374Z,61.44
2018-07-22T01:14:07.754Z,62.72
2018-07-22T01:16:35.690Z,62.40
2018-07-22T01:19:03.789Z,61.24
2018-07-22T01:21:31.953Z,61.60
2018-07-22T01:24:00.170Z,61.98
2018-07-22T01:26:28.045Z,62.03
2018-07-22T01:28:55.864Z,61.30
2018-07-22T01:31:23.693Z,61.13
2018-07-22T01:33:51.607Z,62.43
2018-07-22T01:36:19.466Z,62.30
2018-07-22T01:38:47.280Z,62.29
2018-07-22T01:41:15.105Z,62.43
2018-07-22T01:43:42.981Z,62.24
2018-07-22T01:46:10.829Z,61.90
2018-07-22T01:48:38.737Z,61.45
2018-07-22T01:51:06.656Z,61.26
2018-07-22T01:53:34.478Z,62.60
2018-07-22T01:56:02.361Z,63.30
2018-07-22T01:58:30.210Z,64.01
2018-07-22T02:00:58.052Z,64.25
2018-07-22T02:03:25.854Z,63.69
2018-07-22T02:05:53.716Z,63.47
2018-07-22T02:08:21.572Z,64.09
2018-07-22T02:10:49.510Z,63.83
2018-07-22T02:13:17.680Z,63.66
2018-07-22T02:15:45.502Z,63.62
2018-07-22T02:18:13.343Z,64.47
2018-07-22T02:20:41.206Z,65.03
2018-07-22T02:23:09.032Z,64.93
2018-07-22T02:25:36.864Z,64.71
2018-07-22T02:28:04.735Z,65.69
2018-07-22T02:30:32.561Z,65.48
2018-07-22T02:33:00.384Z,65.12
2018-07-22T02:35:28.289Z,65.58
2018-07-22T02:37:56.157Z,65.48
2018-07-22T02:40:23.969Z,64.30
2018-07-22T02:42:51.833Z,64.51
2018-07-22T02:45:19.662Z,65.25
2018-07-22T02:47:47.545Z,65.46
2018-07-22T02:50:15.443Z,65.66
2018-07-22T02:52:43.306Z,66.14
2018-07-22T02:55:11.156Z,65.63
2018-07-22T02:57:38.988Z,65.21
2018-07-22T03:00:06.931Z,63.87
2018-07-22T03:02:34.769Z,63.82
2018-07-22T03:05:02.709Z,64.86
2018-07-22T03:07:30.522Z,64.42
2018-07-22T03:09:58.397Z,63.65
2018-07-22T03:12:26.285Z,63.67
2018-07-22T03:14:54.130Z,64.57
2018-07-22T03:17:21.978Z,64.72
2018-07-22T03:19:49.849Z,64.52
2018-07-22T03:22:17.690Z,64.79
2018-07-22T03:24:45.506Z,64.82
2018-07-22T03:27:13.386Z,65.86
2018-07-22T03:29:41.225Z,65.50
2018-07-22T03:32:09.045Z,65.20
2018-07-22T03:34:36.870Z,65.35
2018-07-22T03:37:04.743Z,65.15
2018-07-22T03:39:32.571Z,64.72
2018-07-22T03:42:00.433Z,64.87
2018-07-22T03:44:28.274Z,65.39
2018-07-22T03:46:56.172Z,65.41
2018-07-22T03:49:24.014Z,66.03
2018-07-22T03:51:51.862Z,66.25
2018-07-22T03:54:19.765Z,65.33
2018-07-22T03:56:47.605Z,64.76
2018-07-22T03:59:15.437Z,64.70
2018-07-22T04:01:43.277Z,64.44
2018-07-22T04:04:11.133Z,63.85
2018-07-22T04:06:38.985Z,64.84
2018-07-22T04:09:08.382Z,64.57
2018-07-22T04:11:36.253Z,65.15
2018-07-22T04:14:04.209Z,64.17
2018-07-22T04:16:32.077Z,64.76
2018-07-22T04:18:59.984Z,64.67
2018-07-22T04:21:27.950Z,64.18
2018-07-22T04:23:55.784Z,64.37
2018-07-22T04:26:23.731Z,65.07
2018-07-22T04:28:51.669Z,65.11
2018-07-22T04:31:19.665Z,65.74
2018-07-22T04:33:47.542Z,64.87
2018-07-22T04:36:15.413Z,64.67
2018-07-22T04:38:43.242Z,63.82
2018-07-22T04:41:11.074Z,63.39
2018-07-22T04:43:39.021Z,63.21
2018-07-22T04:46:06.902Z,63.64
2018-07-22T04:48:34.745Z,62.60
2018-07-22T04:51:02.631Z,62.01
2018-07-22T04:53:30.483Z,61.52
2018-07-22T04:55:58.382Z,61.30
2018-07-22T04:58:26.243Z,61.84
2018-07-22T05:00:54.081Z,62.45
2018-07-22T05:03:21.902Z,61.45
2018-07-22T05:05:49.706Z,61.99
2018-07-22T05:08:17.561Z,62.18
2018-07-22T05:10:45.401Z,62.75
2018-07-22T05:13:13.838Z,62.97
2018-07-22T05:15:42.378Z,63.70
2018-07-22T05:18:10.369Z,63.50
2018-07-22T05:20:39.037Z,63.04
2018-07-22T05:23:07.014Z,63.04
2018-07-22T05:25:34.857Z,63.53
2018-07-22T05:28:02.956Z,62.93
2018-07-22T05:30:30.920Z,62.73
2018-07-22T05:32:58.856Z,62.31
2018-07-22T05:35:26.693Z,61.68
2018-07-22T05:37:54.570Z,60.24
2018-07-22T05:40:22.409Z,60.07
2018-07-22T05:42:50.273Z,60.67
2018-07-22T05:45:18.138Z,60.12
2018-07-22T05:47:46.014Z,57.93
2018-07-22T05:50:13.925Z,57.29
2018-07-22T05:52:41.756Z,57.52
2018-07-22T05:55:09.634Z,57.15
2018-07-22T05:57:37.524Z,57.38
2018-07-22T06:00:06.766Z,55.19
2018-07-22T06:02:34.770Z,54.64
2018-07-22T06:05:02.679Z,55.09
2018-07-22T06:07:30.538Z,54.88
2018-07-22T06:09:58.382Z,54.96
2018-07-22T06:12:26.225Z,55.53
2018-07-22T06:14:54.120Z,55.57
2018-07-22T06:17:21.949Z,55.14
2018-07-22T06:19:49.793Z,55.86
2018-07-22T06:22:17.620Z,56.19
2018-07-22T06:24:45.437Z,54.98
2018-07-22T06:27:13.299Z,53.62
2018-07-22T06:29:41.147Z,53.20
2018-07-22T06:32:09.033Z,52.59
2018-07-22T06:34:36.871Z,52.90
2018-07-22T06:37:04.778Z,52.65
2018-07-22T06:39:32.651Z,54.15
2018-07-22T06:42:00.527Z,55.09
2018-07-22T06:44:28.365Z,55.60
2018-07-22T06:46:56.289Z,54.68
2018-07-22T06:49:24.138Z,53.96
2018-07-22T06:51:51.978Z,53.37
2018-07-22T06:54:19.839Z,51.12
2018-07-22T06:56:47.665Z,51.88
2018-07-22T06:59:15.501Z,51.48
2018-07-22T07:01:43.366Z,51.11
2018-07-22T07:04:11.239Z,50.94
2018-07-22T07:06:39.078Z,50.77
2018-07-22T07:09:09.853Z,50.13
2018-07-22T07:11:38.031Z,49.90
2018-07-22T07:14:05.985Z,50.66
2018-07-22T07:16:33.893Z,50.37
2018-07-22T07:19:01.758Z,50.50
2018-07-22T07:21:29.638Z,51.01
2018-07-22T07:23:57.494Z,50.65
2018-07-22T07:26:25.438Z,50.83
2018-07-22T07:28:53.381Z,50.48
2018-07-22T07:31:21.294Z,50.51
2018-07-22T07:33:49.135Z,49.05
2018-07-22T07:36:16.979Z,49.59
2018-07-22T07:38:44.814Z,48.93
2018-07-22T07:41:12.669Z,48.61
2018-07-22T07:43:40.521Z,48.03
2018-07-22T07:46:08.617Z,48.82
2018-07-22T07:48:36.440Z,48.83
2018-07-22T07:51:04.323Z,48.41
2018-07-22T07:53:32.183Z,48.63
2018-07-22T07:55:59.981Z,49.55
2018-07-22T07:58:27.838Z,48.88
2018-07-22T08:00:55.686Z,48.93
2018-07-22T08:03:23.557Z,47.67
2018-07-22T08:05:51.494Z,48.04
2018-07-22T08:08:19.400Z,49.04
2018-07-22T08:10:47.233Z,48.60
2018-07-22T08:13:15.037Z,48.96
2018-07-22T08:15:42.893Z,48.10
2018-07-22T08:18:10.716Z,47.96
2018-07-22T08:20:38.605Z,48.07
2018-07-22T08:23:06.486Z,47.67
2018-07-22T08:25:34.393Z,47.47
2018-07-22T08:28:02.259Z,45.10
2018-07-22T08:30:30.133Z,45.85
2018-07-22T08:32:57.976Z,46.31
2018-07-22T08:35:25.821Z,45.64
2018-07-22T08:37:53.690Z,46.98
2018-07-22T08:40:21.517Z,44.60
2018-07-22T08:42:49.377Z,41.53
2018-07-22T08:45:17.285Z,42.71
2018-07-22T08:47:45.201Z,45.28
2018-07-22T08:50:13.071Z,39.41
2018-07-22T08:52:40.957Z,46.41
2018-07-22T08:55:08.945Z,39.99
2018-07-22T08:57:36.818Z,40.91
2018-07-22T09:00:05.639Z,42.37
2018-07-22T09:02:33.502Z,45.86
2018-07-22T09:05:01.373Z,41.41
2018-07-22T09:07:29.234Z,44.14
2018-07-22T09:09:57.114Z,44.14
2018-07-22T09:12:24.996Z,45.26
2018-07-22T09:14:52.914Z,42.93
2018-07-22T09:17:20.774Z,43.91
2018-07-22T09:19:48.632Z,43.59
2018-07-22T09:22:16.502Z,45.84
2018-07-22T09:24:44.362Z,42.53
2018-07-22T09:27:12.161Z,43.01
2018-07-22T09:29:40.010Z,42.39
2018-07-22T09:32:07.921Z,43.32
2018-07-22T09:34:35.771Z,41.39
2018-07-22T09:37:03.625Z,45.03
2018-07-22T09:39:31.461Z,45.36
2018-07-22T09:41:59.293Z,44.23
2018-07-22T09:44:27.152Z,43.35
2018-07-22T09:46:54.985Z,40.66
2018-07-22T09:49:22.898Z,40.21
2018-07-22T09:51:50.750Z,43.52
2018-07-22T09:54:18.658Z,38.62
2018-07-22T09:56:46.478Z,44.39
2018-07-22T09:59:14.378Z,40.61
2018-07-22T10:01:42.186Z,44.38
2018-07-22T10:04:10.865Z,41.75
2018-07-22T10:06:38.733Z,42.96
2018-07-22T10:09:08.625Z,39.08
2018-07-22T10:11:36.447Z,39.47
2018-07-22T10:14:04.617Z,39.90
2018-07-22T10:16:32.464Z,39.08
2018-07-22T10:19:00.313Z,39.07
2018-07-22T10:21:28.152Z,38.31
2018-07-22T10:23:56.000Z,42.79
2018-07-22T10:26:23.857Z,43.39
2018-07-22T10:28:51.738Z,43.30
2018-07-22T10:31:19.646Z,37.64
2018-07-22T10:33:47.521Z,37.67
2018-07-22T10:36:15.443Z,36.68
2018-07-22T10:38:43.347Z,38.25
2018-07-22T10:41:11.193Z,41.66
2018-07-22T10:43:39.065Z,38.66
2018-07-22T10:46:06.932Z,42.80
2018-07-22T10:48:34.778Z,42.00
2018-07-22T10:51:02.748Z,38.35
2018-07-22T10:53:30.521Z,39.68
2018-07-22T10:55:58.402Z,37.81
2018-07-22T10:58:26.238Z,40.66
2018-07-22T11:00:54.090Z,39.61
2018-07-22T11:03:21.987Z,38.07
2018-07-22T11:05:49.813Z,36.53
2018-07-22T11:08:17.681Z,40.47
2018-07-22T11:10:45.535Z,35.65
2018-07-22T11:13:13.354Z,42.98
2018-07-22T11:15:41.212Z,43.65
2018-07-22T11:18:09.028Z,37.47
2018-07-22T11:20:36.902Z,35.25
2018-07-22T11:23:04.801Z,35.31
2018-07-22T11:25:32.675Z,38.86
2018-07-22T11:28:00.532Z,41.81
2018-07-22T11:30:28.369Z,36.27
2018-07-22T11:32:56.218Z,37.95
2018-07-22T11:35:24.077Z,34.24
2018-07-22T11:37:51.941Z,37.27
2018-07-22T11:40:19.817Z,37.76
2018-07-22T11:42:47.713Z,39.05
2018-07-22T11:45:15.581Z,34.79
2018-07-22T11:47:43.408Z,39.50
2018-07-22T11:50:11.285Z,35.09
2018-07-22T11:52:39.121Z,38.58
2018-07-22T11:55:06.996Z,36.59
2018-07-22T11:57:34.818Z,34.83
2018-07-22T12:00:02.754Z,36.06
2018-07-22T12:02:30.726Z,39.39
2018-07-22T12:04:58.553Z,40.03
2018-07-22T12:07:26.389Z,34.33
2018-07-22T12:09:54.198Z,35.51
2018-07-22T12:12:22.057Z,36.05
2018-07-22T12:14:49.915Z,35.60
2018-07-22T12:17:17.845Z,37.54
2018-07-22T12:19:45.773Z,37.71
2018-07-22T12:22:13.940Z,35.46
2018-07-22T12:24:41.787Z,35.14
2018-07-22T12:27:09.621Z,39.34
2018-07-22T12:29:37.481Z,41.35
2018-07-22T12:32:05.391Z,39.91
2018-07-22T12:34:33.278Z,35.39
2018-07-22T12:37:01.163Z,34.55
2018-07-22T12:39:29.051Z,34.10
2018-07-22T12:41:56.901Z,34.78
2018-07-22T12:44:24.765Z,41.49
2018-07-22T12:46:52.642Z,34.82
2018-07-22T12:49:20.480Z,34.07
2018-07-22T12:51:48.358Z,33.52
2018-07-22T12:54:16.197Z,33.93
2018-07-22T12:56:44.016Z,34.15
2018-07-22T12:59:11.878Z,35.21
2018-07-22T13:01:39.701Z,34.06
2018-07-22T13:04:07.553Z,34.81
2018-07-22T13:06:35.777Z,36.28
2018-07-22T13:09:05.916Z,39.58
2018-07-22T13:11:33.765Z,35.39
2018-07-22T13:14:01.596Z,39.26
2018-07-22T13:16:29.453Z,39.69
2018-07-22T13:18:57.361Z,36.18
2018-07-22T13:21:25.186Z,39.28
2018-07-22T13:23:53.028Z,34.22
2018-07-22T13:26:20.967Z,33.85
2018-07-22T13:28:48.852Z,33.86
2018-07-22T13:31:16.704Z,34.31
2018-07-22T13:33:44.575Z,39.30
2018-07-22T13:36:12.425Z,36.71
2018-07-22T13:38:40.285Z,37.39
2018-07-22T13:41:08.198Z,33.95
2018-07-22T13:43:36.058Z,34.05
2018-07-22T13:46:04.029Z,34.33
2018-07-22T13:48:31.901Z,34.68
2018-07-22T13:50:59.755Z,36.99
2018-07-22T13:53:27.619Z,35.70
2018-07-22T13:55:55.597Z,37.18
2018-07-22T13:58:23.463Z,35.04
2018-07-22T14:00:51.385Z,35.74
2018-07-22T14:03:19.269Z,36.82
2018-07-22T14:05:47.117Z,35.95
2018-07-22T14:08:14.986Z,38.86
2018-07-22T14:10:42.805Z,35.98
2018-07-22T14:13:10.675Z,36.21
2018-07-22T14:15:38.604Z,36.95
2018-07-22T14:18:06.485Z,37.49
2018-07-22T14:20:34.396Z,37.69
2018-07-22T14:23:02.254Z,38.27
2018-07-22T14:25:30.113Z,38.20
2018-07-22T14:27:57.995Z,38.68
2018-07-22T14:30:25.837Z,40.58
2018-07-22T14:32:53.739Z,38.68
2018-07-22T14:35:21.631Z,39.33
2018-07-22T14:37:49.472Z,39.45
2018-07-22T14:40:17.413Z,40.14
2018-07-22T14:42:46.909Z,40.49
2018-07-22T14:45:14.787Z,39.97
2018-07-22T14:47:42.656Z,40.53
2018-07-22T14:50:10.516Z,41.14
2018-07-22T14:52:38.361Z,41.40
2018-07-22T14:55:06.207Z,41.12
2018-07-22T14:57:34.058Z,41.62
2018-07-22T15:00:01.953Z,40.91
2018-07-22T15:02:29.818Z,40.65
2018-07-22T15:04:57.659Z,40.78
2018-07-22T15:07:25.505Z,40.47
2018-07-22T15:09:53.315Z,40.86
2018-07-22T15:12:21.216Z,41.07
2018-07-22T15:14:49.047Z,40.62
2018-07-22T15:17:16.974Z,39.80
2018-07-22T15:19:44.973Z,39.78
2018-07-22T15:22:13.322Z,39.02
2018-07-22T15:24:41.481Z,39.00
2018-07-22T15:27:09.654Z,39.19
2018-07-22T15:29:37.929Z,38.85
2018-07-22T15:32:06.309Z,39.13
2018-07-22T15:34:34.509Z,40.84
2018-07-22T15:37:02.760Z,41.13
2018-07-22T15:39:31.021Z,40.59
2018-07-22T15:41:58.865Z,42.27
2018-07-22T15:44:26.733Z,43.62
2018-07-22T15:46:54.617Z,44.22
2018-07-22T15:49:22.441Z,47.54
2018-07-22T15:51:50.286Z,49.49
2018-07-22T15:54:18.141Z,51.35
2018-07-22T15:56:45.968Z,53.05
2018-07-22T15:59:13.778Z,54.54
2018-07-22T16:01:41.660Z,53.37
2018-07-22T16:04:09.452Z,52.80
2018-07-22T16:06:37.278Z,52.52
2018-07-22T16:09:08.354Z,54.98
2018-07-22T16:11:36.203Z,56.93
2018-07-22T16:14:04.194Z,56.89
2018-07-22T16:16:32.090Z,57.50
2018-07-22T16:18:59.919Z,57.68
2018-07-22T16:21:27.789Z,57.79
2018-07-22T16:23:55.628Z,55.10
2018-07-22T16:26:23.487Z,55.15
2018-07-22T16:28:51.354Z,55.48
2018-07-22T16:31:19.285Z,55.31
2018-07-22T16:33:47.122Z,53.92
2018-07-22T16:36:14.993Z,53.72
2018-07-22T16:38:42.822Z,54.79
2018-07-22T16:41:10.688Z,54.47
2018-07-22T16:43:38.529Z,54.76
2018-07-22T16:46:06.376Z,52.81
2018-07-22T16:48:34.301Z,53.67
2018-07-22T16:51:02.141Z,51.55
2018-07-22T16:53:30.079Z,51.90
2018-07-22T16:55:57.900Z,53.19
2018-07-22T16:58:25.765Z,53.24
2018-07-22T17:00:53.609Z,52.33
2018-07-22T17:03:21.475Z,53.70
2018-07-22T17:05:49.329Z,53.18
2018-07-22T17:08:17.146Z,50.75
2018-07-22T17:10:45.018Z,51.21
2018-07-22T17:13:12.865Z,51.21
2018-07-22T17:15:40.726Z,52.36
2018-07-22T17:18:08.637Z,51.47
2018-07-22T17:20:36.470Z,52.43
2018-07-22T17:23:04.330Z,55.18
2018-07-22T17:25:32.242Z,56.07
2018-07-22T17:28:00.062Z,56.70
2018-07-22T17:30:27.910Z,59.55
2018-07-22T17:32:55.753Z,60.69
2018-07-22T17:35:23.584Z,62.68
2018-07-22T17:37:51.429Z,61.81
2018-07-22T17:40:19.284Z,64.54
2018-07-22T17:42:47.143Z,63.62
2018-07-22T17:45:15.004Z,61.11
2018-07-22T17:47:42.817Z,62.94
2018-07-22T17:50:10.658Z,62.14
2018-07-22T17:52:38.473Z,61.34
2018-07-22T17:55:06.360Z,62.83
2018-07-22T17:57:34.250Z,66.07
2018-07-22T18:00:02.121Z,65.66
2018-07-22T18:02:29.954Z,67.89
2018-07-22T18:04:57.777Z,69.05
2018-07-22T18:07:25.689Z,65.12
2018-07-22T18:09:53.605Z,62.25
2018-07-22T18:12:21.489Z,59.95
2018-07-22T18:14:49.437Z,60.16
2018-07-22T18:17:17.424Z,64.00
2018-07-22T18:19:45.328Z,66.13
2018-07-22T18:22:13.224Z,65.72
2018-07-22T18:24:41.097Z,65.90
2018-07-22T18:27:08.997Z,66.14
2018-07-22T18:29:36.879Z,66.99
2018-07-22T18:32:04.796Z,65.47
2018-07-22T18:34:32.693Z,65.74
2018-07-22T18:37:00.700Z,66.79
2018-07-22T18:39:28.587Z,66.73
2018-07-22T18:41:56.534Z,66.99
2018-07-22T18:44:24.457Z,66.79
2018-07-22T18:46:52.362Z,67.46
2018-07-22T18:49:20.288Z,66.82
2018-07-22T18:51:48.199Z,65.92
2018-07-22T18:54:16.106Z,66.47
2018-07-22T18:56:44.114Z,68.79
2018-07-22T18:59:12.008Z,67.60
2018-07-22T19:01:39.909Z,67.92
2018-07-22T19:04:07.815Z,69.02
2018-07-22T19:06:35.747Z,68.55
2018-07-22T19:09:05.240Z,67.49
2018-07-22T19:11:33.181Z,67.93
2018-07-22T19:14:01.053Z,68.78
2018-07-22T19:16:28.974Z,69.48
2018-07-22T19:18:56.878Z,70.04
2018-07-22T19:21:24.805Z,71.02
2018-07-22T19:23:52.673Z,72.54
2018-07-22T19:26:20.581Z,71.42
2018-07-22T19:28:48.685Z,72.29
2018-07-22T19:31:16.589Z,72.17
2018-07-22T19:33:44.545Z,72.12
2018-07-22T19:36:12.464Z,71.77
2018-07-22T19:38:40.340Z,70.71
2018-07-22T19:41:08.259Z,71.61
2018-07-22T19:43:36.187Z,71.75
2018-07-22T19:46:04.091Z,72.47
2018-07-22T19:48:31.965Z,74.75
2018-07-22T19:50:59.869Z,75.67
2018-07-22T19:53:27.786Z,75.56
2018-07-22T19:55:55.742Z,74.88
2018-07-22T19:58:23.656Z,73.96
2018-07-22T20:00:51.585Z,75.18
2018-07-22T20:03:19.534Z,76.18
2018-07-22T20:05:47.417Z,74.97
2018-07-22T20:08:15.353Z,74.29
2018-07-22T20:10:43.261Z,73.67
2018-07-22T20:13:11.238Z,72.18
2018-07-22T20:15:39.182Z,70.67
2018-07-22T20:18:07.135Z,70.71
2018-07-22T20:20:35.070Z,71.01
2018-07-22T20:23:02.949Z,71.35
2018-07-22T20:25:30.866Z,71.70
2018-07-22T20:27:58.805Z,71.07
2018-07-22T20:30:26.692Z,71.42
2018-07-22T20:32:54.597Z,71.02
2018-07-22T20:35:22.510Z,71.06
2018-07-22T20:37:50.429Z,70.32
2018-07-22T20:40:18.344Z,69.21
2018-07-22T20:42:46.257Z,71.81
2018-07-22T20:45:14.215Z,72.60
2018-07-22T20:47:42.225Z,72.46
2018-07-22T20:50:10.131Z,72.26
2018-07-22T20:52:38.103Z,73.23
2018-07-22T20:55:05.997Z,73.02
2018-07-22T20:57:33.930Z,72.73
2018-07-22T21:00:01.814Z,71.89
2018-07-22T21:02:29.760Z,72.28
2018-07-22T21:04:57.660Z,73.85
2018-07-22T21:07:25.602Z,73.84
2018-07-22T21:09:53.517Z,74.25
2018-07-22T21:12:43.290Z,74.64
2018-07-22T21:15:11.502Z,73.52
2018-07-22T21:17:39.456Z,72.75
2018-07-22T21:20:07.465Z,72.96
2018-07-22T21:22:35.441Z,72.75
2018-07-22T21:25:03.537Z,72.67
2018-07-22T21:27:31.446Z,73.10
2018-07-22T21:29:59.427Z,73.64
2018-07-22T21:32:27.300Z,72.90
2018-07-22T21:34:55.219Z,73.32
2018-07-22T21:37:23.089Z,73.04
2018-07-22T21:39:51.042Z,73.64
2018-07-22T21:42:18.954Z,74.60
2018-07-22T21:44:46.853Z,75.06
2018-07-22T21:47:14.750Z,74.78
2018-07-22T21:49:42.671Z,74.69
2018-07-22T21:52:10.574Z,73.87
2018-07-22T21:54:38.502Z,73.45
2018-07-22T21:57:06.434Z,74.57
2018-07-22T21:59:34.342Z,74.93
2018-07-22T22:02:02.259Z,74.87
2018-07-22T22:04:30.229Z,73.86
2018-07-22T22:06:58.165Z,73.11
2018-07-22T22:09:26.046Z,72.70
2018-07-22T22:11:54.048Z,72.15
2018-07-22T22:14:22.006Z,71.35
2018-07-22T22:16:49.969Z,70.24
2018-07-22T22:19:17.909Z,70.41
2018-07-22T22:21:45.832Z,70.56
2018-07-22T22:24:13.778Z,70.99
2018-07-22T22:26:41.701Z,70.02
2018-07-22T22:29:09.921Z,70.08
2018-07-22T22:31:38.053Z,70.99
2018-07-22T22:34:06.022Z,71.27
2018-07-22T22:36:34.330Z,69.66
2018-07-22T22:39:02.309Z,70.33
2018-07-22T22:41:30.253Z,70.22
2018-07-22T22:43:58.201Z,69.35
2018-07-22T22:46:26.082Z,68.51
2018-07-22T22:48:54.010Z,68.61
2018-07-22T22:51:22.074Z,70.25
2018-07-22T22:53:49.972Z,70.31
2018-07-22T22:56:17.893Z,70.44
2018-07-22T22:58:57.029Z,71.00
2018-07-22T23:01:25.018Z,70.82
2018-07-22T23:03:52.929Z,70.83
2018-07-22T23:06:20.873Z,70.79
2018-07-22T23:08:48.814Z,71.11
2018-07-22T23:11:16.753Z,71.45
2018-07-22T23:13:44.680Z,71.12
2018-07-22T23:16:13.026Z,69.61
2018-07-22T23:18:41.302Z,70.26
2018-07-22T23:21:09.202Z,69.29
2018-07-22T23:23:37.429Z,68.19
2018-07-22T23:26:05.814Z,67.76
2018-07-22T23:28:33.937Z,65.65
2018-07-22T23:31:01.836Z,66.56
2018-07-22T23:33:30.138Z,66.70
2018-07-22T23:35:58.020Z,66.82
2018-07-22T23:41:22.936Z,66.56
2018-07-22T23:43:51.398Z,67.50
2018-07-22T23:46:19.674Z,67.85
2018-07-22T23:48:48.051Z,67.81
2018-07-22T23:51:16.529Z,67.48
2018-07-22T23:53:44.838Z,66.82
2018-07-22T23:56:13.282Z,66.21
2018-07-22T23:58:41.554Z,66.70
